createdAt,value
2023-02-19T00:01:56.071Z,6.93
2023-02-19T00:04:24.205Z,7.37
2023-02-19T00:06:52.555Z,6.90
2023-02-19T00:09:21.858Z,6.53
2023-02-19T00:11:50.599Z,5.77
2023-02-19T00:14:22.672Z,6.43
2023-02-19T00:16:51.558Z,6.70
2023-02-19T00:19:21.798Z,6.80
2023-02-19T00:21:52.296Z,8.93
2023-02-19T00:24:20.950Z,9.23
2023-02-19T00:26:49.395Z,7.80
2023-02-19T00:29:22.615Z,9.13
2023-02-19T00:31:50.903Z,10.13
2023-02-19T00:34:19.208Z,8.00
2023-02-19T00:36:47.346Z,7.33
2023-02-19T00:39:18.536Z,7.00
2023-02-19T00:41:46.986Z,7.50
2023-02-19T00:44:16.165Z,7.57
2023-02-19T00:46:48.258Z,8.80
2023-02-19T00:49:21.142Z,8.43
2023-02-19T00:51:50.163Z,8.53
2023-02-19T00:54:18.903Z,9.63
2023-02-19T00:56:47.244Z,6.27
2023-02-19T00:59:15.954Z,7.37
2023-02-19T01:01:46.252Z,6.50
2023-02-19T01:04:16.335Z,7.13
2023-02-19T01:06:44.585Z,9.57
2023-02-19T01:09:13.558Z,8.40
2023-02-19T01:11:41.728Z,8.43
2023-02-19T01:14:11.160Z,9.67
2023-02-19T01:16:39.591Z,10.83
2023-02-19T01:19:09.083Z,9.27
2023-02-19T01:21:37.174Z,10.30
2023-02-19T01:24:05.649Z,9.30
2023-02-19T01:26:34.777Z,11.47
2023-02-19T01:29:03.330Z,11.47
2023-02-19T01:31:31.910Z,11.20
2023-02-19T01:34:02.307Z,11.80
2023-02-19T01:36:34.552Z,13.07
2023-02-19T01:39:05.522Z,11.80
2023-02-19T01:41:39.421Z,15.77
2023-02-19T01:44:47.176Z,15.53
2023-02-19T01:47:19.689Z,16.60
2023-02-19T01:49:53.644Z,11.27
2023-02-19T01:52:30.717Z,13.37
2023-02-19T01:55:00.923Z,12.87
2023-02-19T01:57:36.425Z,17.30
2023-02-19T02:00:10.238Z,13.70
2023-02-19T02:02:40.700Z,15.40
2023-02-19T02:05:18.983Z,15.73
2023-02-19T02:08:06.048Z,11.13
2023-02-19T02:10:34.996Z,13.03
2023-02-19T02:13:03.127Z,15.70
2023-02-19T02:15:44.668Z,11.63
2023-02-19T02:18:29.979Z,10.57
2023-02-19T02:21:46.423Z,11.00
2023-02-19T02:24:57.748Z,11.70
2023-02-19T02:27:54.562Z,16.30
2023-02-19T02:30:38.680Z,18.50
2023-02-19T02:33:26.096Z,21.87
2023-02-19T02:35:59.584Z,19.20
2023-02-19T02:38:32.824Z,14.83
2023-02-19T02:41:01.323Z,9.53
2023-02-19T02:43:29.677Z,8.83
2023-02-19T02:45:59.453Z,13.10
2023-02-19T02:48:36.789Z,11.00
2023-02-19T02:51:15.199Z,13.13
2023-02-19T02:54:07.805Z,10.73
2023-02-19T02:56:37.091Z,7.87
2023-02-19T02:59:10.097Z,9.73
2023-02-19T03:02:03.277Z,7.37
2023-02-19T03:05:00.188Z,6.93
2023-02-19T03:07:36.129Z,8.53
2023-02-19T03:10:08.928Z,5.53
2023-02-19T03:12:58.141Z,7.03
2023-02-19T03:15:52.804Z,7.17
2023-02-19T03:18:41.894Z,5.50
2023-02-19T03:21:11.328Z,10.60
2023-02-19T03:23:57.418Z,14.13
2023-02-19T03:26:27.525Z,14.00
2023-02-19T03:29:14.413Z,9.73
2023-02-19T03:31:45.927Z,5.23
2023-02-19T03:34:26.070Z,5.03
2023-02-19T03:37:02.997Z,4.47
2023-02-19T03:39:31.954Z,3.13
2023-02-19T03:42:07.835Z,2.57
2023-02-19T03:44:45.858Z,1.97
2023-02-19T03:47:23.735Z,2.50
2023-02-19T03:50:00.782Z,1.80
2023-02-19T03:52:42.917Z,1.23
2023-02-19T03:55:18.952Z,1.23
2023-02-19T03:57:52.709Z,1.50
2023-02-19T04:00:28.993Z,1.90
2023-02-19T04:03:08.015Z,1.70
2023-02-19T04:05:46.609Z,1.27
2023-02-19T04:08:20.920Z,1.13
2023-02-19T04:10:51.704Z,0.70
2023-02-19T04:13:27.220Z,0.93
2023-02-19T04:16:02.360Z,1.13
2023-02-19T04:18:36.370Z,1.10
2023-02-19T04:21:08.811Z,1.10
2023-02-19T04:23:44.172Z,2.43
2023-02-19T04:26:15.150Z,1.97
2023-02-19T04:28:44.182Z,1.17
2023-02-19T04:31:13.162Z,0.80
2023-02-19T04:33:41.589Z,0.70
2023-02-19T04:36:12.644Z,0.73
2023-02-19T04:38:40.764Z,0.70
2023-02-19T04:41:10.443Z,0.87
2023-02-19T04:43:38.793Z,0.80
2023-02-19T04:46:07.133Z,0.87
2023-02-19T04:48:35.294Z,0.70
2023-02-19T04:51:07.529Z,0.60
2023-02-19T04:53:37.978Z,0.70
2023-02-19T04:56:11.675Z,0.73
2023-02-19T04:58:40.880Z,0.60
2023-02-19T05:01:10.889Z,0.50
2023-02-19T05:03:39.768Z,0.57
2023-02-19T05:06:11.586Z,0.53
2023-02-19T05:08:41.982Z,0.43
2023-02-19T05:11:12.919Z,0.70
2023-02-19T05:13:41.689Z,0.70
2023-02-19T05:16:15.825Z,1.33
2023-02-19T05:18:46.564Z,1.07
2023-02-19T05:21:15.735Z,0.83
2023-02-19T05:23:45.555Z,1.87
2023-02-19T05:26:17.767Z,0.93
2023-02-19T05:28:46.583Z,1.27
2023-02-19T05:31:15.736Z,1.33
2023-02-19T05:33:45.631Z,1.80
2023-02-19T05:36:15.254Z,3.50
2023-02-19T05:38:44.840Z,3.07
2023-02-19T05:41:15.887Z,8.73
2023-02-19T05:43:47.941Z,3.73
2023-02-19T05:46:19.711Z,3.43
2023-02-19T05:48:48.415Z,5.27
2023-02-19T05:51:21.150Z,6.33
2023-02-19T05:53:51.586Z,4.63
2023-02-19T05:56:31.701Z,4.30
2023-02-19T05:59:00.858Z,4.13
2023-02-19T06:01:30.566Z,5.43
2023-02-19T06:03:59.587Z,7.27
2023-02-19T06:06:28.657Z,6.90
2023-02-19T06:08:58.181Z,5.67
2023-02-19T06:11:26.463Z,5.27
2023-02-19T06:13:54.567Z,7.83
2023-02-19T06:16:23.161Z,3.77
2023-02-19T06:18:51.913Z,3.80
2023-02-19T06:21:21.126Z,2.67
2023-02-19T06:23:49.295Z,4.03
2023-02-19T06:26:22.264Z,3.40
2023-02-19T06:28:53.300Z,2.50
2023-02-19T06:31:23.599Z,2.37
2023-02-19T06:33:51.897Z,2.33
2023-02-19T06:36:22.126Z,2.07
2023-02-19T06:38:50.756Z,1.70
2023-02-19T06:41:20.926Z,2.20
2023-02-19T06:43:49.051Z,2.73
2023-02-19T06:46:17.236Z,2.03
2023-02-19T06:48:46.645Z,2.20
2023-02-19T06:51:18.615Z,2.20
2023-02-19T06:53:47.388Z,2.00
2023-02-19T06:56:29.716Z,2.23
2023-02-19T06:59:00.933Z,1.60
2023-02-19T07:01:31.233Z,1.50
2023-02-19T07:03:59.755Z,1.70
2023-02-19T07:06:29.054Z,1.80
2023-02-19T07:08:59.628Z,2.60
2023-02-19T07:11:33.312Z,2.10
2023-02-19T07:14:04.056Z,2.10
2023-02-19T07:16:32.691Z,2.70
2023-02-19T07:19:02.308Z,2.23
2023-02-19T07:21:31.315Z,2.30
2023-02-19T07:23:59.564Z,2.63
2023-02-19T07:26:29.096Z,2.73
2023-02-19T07:28:57.218Z,2.93
2023-02-19T07:31:26.165Z,2.40
2023-02-19T07:33:55.440Z,2.10
2023-02-19T07:36:25.223Z,2.10
2023-02-19T07:38:57.261Z,3.27
2023-02-19T07:41:28.323Z,5.23
2023-02-19T07:43:56.538Z,4.33
2023-02-19T07:46:25.399Z,6.00
2023-02-19T07:48:53.531Z,5.03
2023-02-19T07:51:23.190Z,4.87
2023-02-19T07:53:51.882Z,3.37
2023-02-19T07:56:21.445Z,3.40
2023-02-19T07:58:51.098Z,2.93
2023-02-19T08:01:43.200Z,4.87
2023-02-19T08:04:13.476Z,2.80
2023-02-19T08:06:43.469Z,3.30
2023-02-19T08:09:12.177Z,2.50
2023-02-19T08:11:57.947Z,4.07
2023-02-19T08:14:28.923Z,3.37
2023-02-19T08:16:57.165Z,2.83
2023-02-19T08:19:25.851Z,4.43
2023-02-19T08:21:54.483Z,4.13
2023-02-19T08:24:22.919Z,3.47
2023-02-19T08:26:51.353Z,3.83
2023-02-19T08:29:19.457Z,3.60
2023-02-19T08:31:49.095Z,3.43
2023-02-19T08:34:17.400Z,2.63
2023-02-19T08:36:45.783Z,2.67
2023-02-19T08:39:13.878Z,2.33
2023-02-19T08:41:42.007Z,2.03
2023-02-19T08:44:10.077Z,2.47
2023-02-19T08:46:38.591Z,3.33
2023-02-19T08:49:08.053Z,1.53
2023-02-19T08:51:36.140Z,4.30
2023-02-19T08:54:05.410Z,2.03
2023-02-19T08:56:33.539Z,1.20
2023-02-19T08:59:01.800Z,1.90
2023-02-19T09:01:30.009Z,2.03
2023-02-19T09:03:58.209Z,1.30
2023-02-19T09:06:28.036Z,2.10
2023-02-19T09:08:56.177Z,2.17
2023-02-19T09:11:24.347Z,1.60
2023-02-19T09:13:52.544Z,1.83
2023-02-19T09:16:20.670Z,1.67
2023-02-19T09:18:48.802Z,1.87
2023-02-19T09:21:16.902Z,1.90
2023-02-19T09:23:46.376Z,1.47
2023-02-19T09:26:14.548Z,2.10
2023-02-19T09:28:43.123Z,2.73
2023-02-19T09:31:14.630Z,3.00
2023-02-19T09:33:47.092Z,1.93
2023-02-19T09:36:18.586Z,3.07
2023-02-19T09:38:48.201Z,2.83
2023-02-19T09:41:25.058Z,2.27
2023-02-19T09:43:53.476Z,3.37
2023-02-19T09:46:33.575Z,2.43
2023-02-19T09:49:08.047Z,3.17
2023-02-19T09:51:40.369Z,3.27
2023-02-19T09:54:21.396Z,1.30
2023-02-19T09:56:49.734Z,2.60
2023-02-19T09:59:24.648Z,2.70
2023-02-19T10:02:00.568Z,2.40
2023-02-19T10:04:29.215Z,1.77
2023-02-19T10:07:03.657Z,1.40
2023-02-19T10:09:33.235Z,3.30
2023-02-19T10:12:01.614Z,2.67
2023-02-19T10:14:40.746Z,3.07
2023-02-19T10:17:21.866Z,1.43
2023-02-19T10:19:50.329Z,1.80
2023-02-19T10:22:20.306Z,2.30
2023-02-19T10:24:55.324Z,2.60
2023-02-19T10:27:27.090Z,2.63
2023-02-19T10:29:55.881Z,2.13
2023-02-19T10:32:27.452Z,2.57
2023-02-19T10:35:12.330Z,3.63
2023-02-19T10:37:46.257Z,2.20
2023-02-19T10:40:20.141Z,1.97
2023-02-19T10:42:51.346Z,3.23
2023-02-19T10:45:25.473Z,6.73
2023-02-19T10:47:54.737Z,3.07
2023-02-19T10:50:30.473Z,4.10
2023-02-19T10:53:01.849Z,3.67
2023-02-19T10:55:37.738Z,3.23
2023-02-19T10:58:26.606Z,3.83
2023-02-19T11:01:21.008Z,6.00
2023-02-19T11:03:52.513Z,5.20
2023-02-19T11:06:27.955Z,3.03
2023-02-19T11:08:59.709Z,2.37
2023-02-19T11:11:35.579Z,3.97
2023-02-19T11:14:14.955Z,2.40
2023-02-19T11:16:46.617Z,1.73
2023-02-19T11:19:32.690Z,2.57
2023-02-19T11:22:03.481Z,1.70
2023-02-19T11:24:37.448Z,1.57
2023-02-19T11:27:19.393Z,2.93
2023-02-19T11:29:47.564Z,2.03
2023-02-19T11:32:27.439Z,1.93
2023-02-19T11:35:22.656Z,5.50
2023-02-19T11:38:00.518Z,2.57
2023-02-19T11:40:41.930Z,3.67
2023-02-19T11:43:36.262Z,2.87
2023-02-19T11:46:17.335Z,3.00
2023-02-19T11:49:06.145Z,2.20
2023-02-19T11:52:23.538Z,3.80
2023-02-19T11:54:58.156Z,2.90
2023-02-19T11:57:45.134Z,2.47
2023-02-19T12:00:31.426Z,3.63
2023-02-19T12:03:51.036Z,2.67
2023-02-19T12:06:30.407Z,3.70
2023-02-19T12:09:29.043Z,4.03
2023-02-19T12:12:25.265Z,2.67
2023-02-19T12:15:29.091Z,1.90
2023-02-19T12:18:42.311Z,2.70
2023-02-19T12:21:36.553Z,3.33
2023-02-19T12:24:48.959Z,2.47
2023-02-19T12:27:33.682Z,2.40
2023-02-19T12:30:26.300Z,2.53
2023-02-19T12:33:19.424Z,3.13
2023-02-19T12:36:10.465Z,4.27
2023-02-19T12:38:45.652Z,3.80
2023-02-19T12:41:43.030Z,2.67
2023-02-19T12:44:18.180Z,3.17
2023-02-19T12:46:53.892Z,3.30
2023-02-19T12:49:32.180Z,3.40
2023-02-19T12:52:07.707Z,3.90
2023-02-19T12:54:40.300Z,2.53
2023-02-19T12:57:16.588Z,2.77
2023-02-19T12:59:53.818Z,2.53
2023-02-19T13:02:29.447Z,1.53
2023-02-19T13:05:05.390Z,3.17
2023-02-19T13:07:41.806Z,2.07
2023-02-19T13:10:31.842Z,3.43
2023-02-19T13:13:07.969Z,3.63
2023-02-19T13:15:42.613Z,2.03
2023-02-19T13:18:19.693Z,1.70
2023-02-19T13:20:51.852Z,2.03
2023-02-19T13:23:45.145Z,4.17
2023-02-19T13:26:37.209Z,2.03
2023-02-19T13:29:26.806Z,1.57
2023-02-19T13:32:49.865Z,2.07
2023-02-19T13:35:29.231Z,3.00
2023-02-19T13:38:04.036Z,3.23
2023-02-19T13:40:35.472Z,3.83
2023-02-19T13:43:07.148Z,4.00
2023-02-19T13:45:40.859Z,2.87
2023-02-19T13:48:27.801Z,1.73
2023-02-19T13:51:40.463Z,2.60
2023-02-19T13:54:28.440Z,2.50
2023-02-19T13:57:28.620Z,3.00
2023-02-19T13:59:58.577Z,2.47
2023-02-19T14:02:35.331Z,3.70
2023-02-19T14:05:10.402Z,2.10
2023-02-19T14:07:55.720Z,2.53
2023-02-19T14:11:02.195Z,3.70
2023-02-19T14:14:21.574Z,3.33
2023-02-19T14:17:04.761Z,1.60
2023-02-19T14:19:54.056Z,2.47
2023-02-19T14:23:14.942Z,2.67
2023-02-19T14:26:02.415Z,2.27
2023-02-19T14:28:44.227Z,3.37
2023-02-19T14:31:30.076Z,3.00
2023-02-19T14:34:03.250Z,2.30
2023-02-19T14:36:43.946Z,3.60
2023-02-19T14:39:17.459Z,1.37
2023-02-19T14:41:51.620Z,2.37
2023-02-19T14:44:24.969Z,2.40
2023-02-19T14:46:59.861Z,3.50
2023-02-19T14:49:40.033Z,2.93
2023-02-19T14:52:16.732Z,2.67
2023-02-19T14:54:52.261Z,2.57
2023-02-19T14:57:27.348Z,3.33
2023-02-19T14:59:59.040Z,1.87
2023-02-19T15:02:30.119Z,2.40
2023-02-19T15:04:59.061Z,3.07
2023-02-19T15:07:32.788Z,1.90
2023-02-19T15:10:05.989Z,5.27
2023-02-19T15:12:44.374Z,1.70
2023-02-19T15:15:21.899Z,1.70
2023-02-19T15:17:52.088Z,2.77
2023-02-19T15:20:25.439Z,2.83
2023-02-19T15:22:55.454Z,1.23
2023-02-19T15:25:30.362Z,3.47
2023-02-19T15:28:20.826Z,3.10
2023-02-19T15:30:49.067Z,1.43
2023-02-19T15:33:20.777Z,2.33
2023-02-19T15:35:52.354Z,1.07
2023-02-19T15:38:20.775Z,1.77
2023-02-19T15:40:50.384Z,3.40
2023-02-19T15:43:26.822Z,1.00
2023-02-19T15:46:01.140Z,2.20
2023-02-19T15:48:38.074Z,1.50
2023-02-19T15:51:13.088Z,2.90
2023-02-19T15:53:49.579Z,1.80
2023-02-19T15:56:28.041Z,2.30
2023-02-19T15:59:03.575Z,1.13
2023-02-19T16:01:35.262Z,2.17
2023-02-19T16:04:05.045Z,2.73
2023-02-19T16:06:56.045Z,3.30
2023-02-19T16:09:30.803Z,2.33
2023-02-19T16:12:01.608Z,4.30
2023-02-19T16:14:36.994Z,3.33
2023-02-19T16:17:15.255Z,1.93
2023-02-19T16:19:49.752Z,3.67
2023-02-19T16:22:21.609Z,2.07
2023-02-19T16:24:53.410Z,2.83
2023-02-19T16:27:32.912Z,3.87
2023-02-19T16:30:08.855Z,3.67
2023-02-19T16:32:37.145Z,4.30
2023-02-19T16:35:05.431Z,3.07
2023-02-19T16:37:40.810Z,2.83
2023-02-19T16:41:13.801Z,4.47
2023-02-19T16:43:44.341Z,3.30
2023-02-19T16:46:14.511Z,5.97
2023-02-19T16:48:42.664Z,4.70
2023-02-19T16:51:22.816Z,5.57
2023-02-19T16:53:50.997Z,4.33
2023-02-19T16:56:23.136Z,7.50
2023-02-19T16:58:51.430Z,3.67
2023-02-19T17:01:21.179Z,3.27
2023-02-19T17:03:49.649Z,3.77
2023-02-19T17:06:18.359Z,3.93
2023-02-19T17:08:46.638Z,3.43
2023-02-19T17:11:18.128Z,2.63
2023-02-19T17:13:47.708Z,4.57
2023-02-19T17:16:22.726Z,2.47
2023-02-19T17:18:51.962Z,4.20
2023-02-19T17:21:24.998Z,2.30
2023-02-19T17:23:54.120Z,3.20
2023-02-19T17:26:25.920Z,4.07
2023-02-19T17:28:54.188Z,2.63
2023-02-19T17:31:23.784Z,2.70
2023-02-19T17:33:52.123Z,5.13
2023-02-19T17:36:24.309Z,5.03
2023-02-19T17:38:52.420Z,2.90
2023-02-19T17:41:20.709Z,6.27
2023-02-19T17:43:50.399Z,3.37
2023-02-19T17:46:19.841Z,5.80
2023-02-19T17:48:49.882Z,5.57
2023-02-19T17:51:18.371Z,7.07
2023-02-19T17:53:46.630Z,7.20
2023-02-19T17:56:19.331Z,5.80
2023-02-19T17:58:48.057Z,5.50
2023-02-19T18:01:16.533Z,6.33
2023-02-19T18:03:45.287Z,6.87
2023-02-19T18:06:15.274Z,6.93
2023-02-19T18:08:50.001Z,6.77
2023-02-19T18:11:19.049Z,7.43
2023-02-19T18:13:48.079Z,9.33
2023-02-19T18:16:17.183Z,9.07
2023-02-19T18:18:46.057Z,7.47
2023-02-19T18:21:15.634Z,6.70
2023-02-19T18:23:44.023Z,7.50
2023-02-19T18:26:13.663Z,8.07
2023-02-19T18:28:41.764Z,11.33
2023-02-19T18:31:10.344Z,12.77
2023-02-19T18:33:38.899Z,11.80
2023-02-19T18:36:11.893Z,13.87
2023-02-19T18:38:42.086Z,11.30
2023-02-19T18:41:13.826Z,7.30
2023-02-19T18:43:42.646Z,7.67
2023-02-19T18:46:12.393Z,6.37
2023-02-19T18:48:40.912Z,8.47
2023-02-19T18:51:11.245Z,8.73
2023-02-19T18:53:43.072Z,10.73
2023-02-19T18:56:11.208Z,10.67
2023-02-19T18:58:39.394Z,8.00
2023-02-19T19:01:07.566Z,10.57
2023-02-19T19:03:35.746Z,8.90
2023-02-19T19:06:03.849Z,11.07
2023-02-19T19:08:32.064Z,7.93
2023-02-19T19:11:01.850Z,8.07
2023-02-19T19:13:30.233Z,9.33
2023-02-19T19:15:58.401Z,10.70
2023-02-19T19:18:27.792Z,10.90
2023-02-19T19:21:01.558Z,9.03
2023-02-19T19:23:29.747Z,8.70
2023-02-19T19:25:58.169Z,6.37
2023-02-19T19:28:27.711Z,7.30
2023-02-19T19:30:55.870Z,9.33
2023-02-19T19:33:24.354Z,8.93
2023-02-19T19:35:52.875Z,9.97
2023-02-19T19:38:21.317Z,9.07
2023-02-19T19:40:49.430Z,8.80
2023-02-19T19:43:17.590Z,8.93
2023-02-19T19:45:47.272Z,7.00
2023-02-19T19:48:15.406Z,7.27
2023-02-19T19:50:43.531Z,9.77
2023-02-19T19:53:11.670Z,9.90
2023-02-19T19:55:39.794Z,8.40
2023-02-19T19:58:07.967Z,9.07
2023-02-19T20:00:36.034Z,9.53
2023-02-19T20:03:06.846Z,10.00
2023-02-19T20:05:35.008Z,11.20
2023-02-19T20:08:03.116Z,8.53
2023-02-19T20:10:31.239Z,8.90
2023-02-19T20:13:00.119Z,9.27
2023-02-19T20:15:28.372Z,9.53
2023-02-19T20:17:56.638Z,10.40
2023-02-19T20:20:26.154Z,11.70
2023-02-19T20:22:54.849Z,10.67
2023-02-19T20:25:24.513Z,13.23
2023-02-19T20:27:53.957Z,12.70
2023-02-19T20:30:24.513Z,11.30
2023-02-19T20:32:53.460Z,13.20
2023-02-19T20:35:21.678Z,12.20
2023-02-19T20:37:51.146Z,11.27
2023-02-19T20:40:19.946Z,11.37
2023-02-19T20:42:48.020Z,9.73
2023-02-19T20:45:17.596Z,14.47
2023-02-19T20:47:45.856Z,10.87
2023-02-19T20:50:14.052Z,10.40
2023-02-19T20:52:42.163Z,9.83
2023-02-19T20:55:12.274Z,12.30
2023-02-19T20:57:40.444Z,13.00
2023-02-19T21:00:11.171Z,13.53
2023-02-19T21:02:39.299Z,13.97
2023-02-19T21:05:10.194Z,11.83
2023-02-19T21:07:38.334Z,13.70
2023-02-19T21:10:07.563Z,11.40
2023-02-19T21:12:37.042Z,13.23
2023-02-19T21:18:26.927Z,12.10
2023-02-19T21:20:55.236Z,12.23
2023-02-19T21:23:23.533Z,13.27
2023-02-19T21:25:53.638Z,12.47
2023-02-19T21:28:25.700Z,10.50
2023-02-19T21:30:54.131Z,12.10
2023-02-19T21:33:22.274Z,12.50
2023-02-19T21:35:50.380Z,12.60
2023-02-19T21:38:18.624Z,13.10
2023-02-19T21:40:46.846Z,14.23
2023-02-19T21:43:15.082Z,12.67
2023-02-19T21:45:44.677Z,13.47
2023-02-19T21:48:12.975Z,14.33
2023-02-19T21:50:45.350Z,13.03
2023-02-19T21:53:13.997Z,14.20
2023-02-19T21:55:56.610Z,15.63
2023-02-19T21:58:26.892Z,13.37
2023-02-19T22:00:58.042Z,12.33
2023-02-19T22:03:26.925Z,11.33
2023-02-19T22:05:55.201Z,10.87
2023-02-19T22:08:23.316Z,10.47
2023-02-19T22:10:51.451Z,10.40
2023-02-19T22:13:19.609Z,11.17
2023-02-19T22:15:47.728Z,9.23
2023-02-19T22:18:17.222Z,9.97
2023-02-19T22:20:45.455Z,11.23
2023-02-19T22:23:13.577Z,9.03
2023-02-19T22:25:41.844Z,10.70
2023-02-19T22:28:12.418Z,9.57
2023-02-19T22:30:40.958Z,9.73
2023-02-19T22:33:09.154Z,8.80
2023-02-19T22:35:38.617Z,11.77
2023-02-19T22:38:06.691Z,10.97
2023-02-19T22:40:34.761Z,11.37
2023-02-19T22:43:02.874Z,11.97
2023-02-19T22:45:31.008Z,12.90
2023-02-19T22:47:59.151Z,10.77
2023-02-19T22:50:27.243Z,12.00
2023-02-19T22:52:56.735Z,12.60
2023-02-19T22:55:24.932Z,9.57
2023-02-19T22:57:53.098Z,9.27
2023-02-19T23:00:22.709Z,8.93
2023-02-19T23:02:50.862Z,11.40
2023-02-19T23:05:19.029Z,10.13
2023-02-19T23:07:47.493Z,10.80
2023-02-19T23:10:17.045Z,8.93
2023-02-19T23:12:45.180Z,8.87
2023-02-19T23:15:14.665Z,8.07
2023-02-19T23:17:42.925Z,14.73
2023-02-19T23:20:11.972Z,13.03
2023-02-19T23:22:40.087Z,8.80
2023-02-19T23:25:08.955Z,11.13
2023-02-19T23:27:39.278Z,9.70
2023-02-19T23:30:09.156Z,8.17
2023-02-19T23:32:37.318Z,6.37
2023-02-19T23:35:05.844Z,8.23
2023-02-19T23:37:33.924Z,5.97
2023-02-19T23:40:02.041Z,6.93
2023-02-19T23:42:31.321Z,7.23
2023-02-19T23:45:00.780Z,8.33
2023-02-19T23:47:30.620Z,9.03
2023-02-19T23:49:58.920Z,7.57
2023-02-19T23:52:27.136Z,8.30
2023-02-19T23:54:57.417Z,7.63
2023-02-19T23:57:25.533Z,6.50
2023-02-19T23:59:53.640Z,5.90
